Time;durP1;ratioP1;P1;durP2;ratioP2;P2;SDS_P1;SDS_P2;PMS_P1;PMS_P2;Temp;Humidity;BMP_temperature;BMP_pressure;BME280_temperature;BME280_humidity;BME280_pressure;Samples;Min_cycle;Max_cycle;Signal;HPM_P1;HPM_P2
2023/10/07 00:00:52;;;;;;;13.20;4.10;;;17.30;99.90;;;;;;4904885;29;20489;-60
2023/10/07 00:03:19;;;;;;;16.35;4.97;;;17.40;99.90;;;;;;4902838;28;20046;-61
2023/10/07 00:05:50;;;;;;;15.63;4.70;;;17.40;99.90;;;;;;4902014;28;20064;-53
2023/10/07 00:08:16;;;;;;;15.20;4.15;;;17.40;99.90;;;;;;4903907;28;20044;-58
2023/10/07 00:10:46;;;;;;;18.25;4.53;;;17.40;99.90;;;;;;4904110;28;20048;-59
2023/10/07 00:13:12;;;;;;;19.58;4.82;;;17.50;99.90;;;;;;4903911;28;20055;-52
2023/10/07 00:15:42;;;;;;;13.57;4.28;;;17.50;99.90;;;;;;4903915;29;20052;-59
2023/10/07 00:18:13;;;;;;;16.25;4.53;;;17.40;99.90;;;;;;4903420;29;20048;-53
2023/10/07 00:20:51;;;;;;;16.02;4.72;;;17.40;99.90;;;;;;4904385;29;20590;-59
2023/10/07 00:23:26;;;;;;;20.05;4.97;;;17.40;99.90;;;;;;4904031;29;20064;-57
2023/10/07 00:25:54;;;;;;;14.88;4.28;;;17.40;99.90;;;;;;4904363;28;20052;-58
2023/10/07 00:31:01;;;;;;;22.77;4.72;;;17.30;99.90;;;;;;4904182;29;20048;-60
2023/10/07 00:33:27;;;;;;;15.00;4.53;;;17.30;99.90;;;;;;4903586;28;20048;-51
2023/10/07 00:35:53;;;;;;;21.17;4.88;;;17.30;99.90;;;;;;4903441;28;20102;-55
2023/10/07 00:38:22;;;;;;;17.48;5.45;;;17.30;99.90;;;;;;4887495;28;20037;-59
2023/10/07 00:40:56;;;;;;;14.52;4.70;;;17.30;99.90;;;;;;4915068;28;20044;-57
2023/10/07 00:43:26;;;;;;;19.58;4.57;;;17.30;99.90;;;;;;4902777;29;20063;-61
2023/10/07 00:46:10;;;;;;;14.63;4.40;;;17.30;99.90;;;;;;4910242;29;20048;-56
2023/10/07 00:48:48;;;;;;;17.40;4.97;;;17.30;99.90;;;;;;4922681;28;20388;-55
2023/10/07 00:51:24;;;;;;;17.95;4.65;;;17.30;99.90;;;;;;4921067;28;20063;-57
2023/10/07 00:54:01;;;;;;;14.65;4.45;;;17.50;99.90;;;;;;4920558;29;20051;-59
2023/10/07 00:56:33;;;;;;;15.85;3.80;;;17.30;99.90;;;;;;4910091;28;20047;-58
2023/10/07 00:59:07;;;;;;;14.75;4.47;;;17.40;99.90;;;;;;4908288;29;20119;-61
2023/10/07 01:01:36;;;;;;;13.87;3.97;;;17.40;99.90;;;;;;4902176;29;20416;-58
2023/10/07 01:04:06;;;;;;;17.10;4.97;;;17.40;99.90;;;;;;4903449;29;20052;-57
2023/10/07 01:06:32;;;;;;;17.38;4.57;;;17.30;99.90;;;;;;4903426;29;20090;-60
2023/10/07 01:09:11;;;;;;;17.48;4.82;;;17.30;99.90;;;;;;5075659;22;20061;-60
2023/10/07 01:11:46;;;;;;;15.90;4.70;;;17.20;99.90;;;;;;5041698;28;20056;-63
2023/10/07 01:14:12;;;;;;;14.18;4.63;;;17.10;99.90;;;;;;5036217;28;20049;-53
2023/10/07 01:16:42;;;;;;;15.00;5.00;;;17.10;99.90;;;;;;5040761;28;20454;-58
2023/10/07 01:21:55;;;;;;;19.60;5.57;;;17.00;99.90;;;;;;5023185;28;20055;-55
2023/10/07 01:24:43;;;;;;;17.55;5.28;;;16.90;99.90;;;;;;5040663;28;20041;-57
2023/10/07 01:27:34;;;;;;;15.77;5.07;;;16.80;99.90;;;;;;5041591;28;20048;-59
2023/10/07 01:30:07;;;;;;;16.85;5.55;;;16.90;99.90;;;;;;5041243;28;20049;-59
2023/10/07 01:32:34;;;;;;;17.80;5.65;;;16.80;99.90;;;;;;5040707;28;20033;-62
2023/10/07 01:35:06;;;;;;;19.48;6.07;;;16.70;99.90;;;;;;5043638;28;20048;-58
2023/10/07 01:37:44;;;;;;;18.33;6.05;;;16.60;99.90;;;;;;5044164;28;20649;-61
2023/10/07 01:40:16;;;;;;;18.50;6.40;;;16.70;99.90;;;;;;5045313;28;20250;-57
2023/10/07 01:42:46;;;;;;;19.42;6.57;;;16.60;99.90;;;;;;5045816;28;20041;-53
2023/10/07 01:45:20;;;;;;;19.45;6.93;;;16.60;99.90;;;;;;5043830;28;20678;-59
2023/10/07 01:47:47;;;;;;;;;;;16.50;99.90;;;;;;5044106;28;20072;-59
2023/10/07 01:50:14;;;;;;;23.13;7.00;;;16.60;99.90;;;;;;5027121;28;20387;-55
2023/10/07 01:52:39;;;;;;;21.85;7.40;;;16.50;99.90;;;;;;5043378;28;20123;-51
2023/10/07 01:55:09;;;;;;;16.52;6.78;;;16.60;99.90;;;;;;5044764;28;20051;-56
2023/10/07 01:57:35;;;;;;;20.52;6.75;;;16.60;99.90;;;;;;5045180;28;20040;-59
2023/10/07 02:00:05;;;;;;;19.50;6.82;;;16.50;99.90;;;;;;5043480;28;20076;-54
2023/10/07 02:02:31;;;;;;;23.85;7.15;;;16.50;99.90;;;;;;5043450;28;20045;-56
2023/10/07 02:04:57;;;;;;;19.40;6.50;;;16.50;99.90;;;;;;5044905;28;20510;-59
2023/10/07 02:07:22;;;;;;;23.65;6.72;;;16.50;99.90;;;;;;5025884;28;20103;-53
2023/10/07 02:09:48;;;;;;;18.65;6.70;;;16.50;99.90;;;;;;5045050;28;20127;-57
2023/10/07 02:12:18;;;;;;;20.10;6.85;;;16.50;99.90;;;;;;5044549;28;20071;-60
2023/10/07 02:14:44;;;;;;;25.10;7.18;;;16.50;99.90;;;;;;5044406;28;20052;-54
2023/10/07 02:17:12;;;;;;;16.23;6.20;;;16.60;99.90;;;;;;5042693;28;20037;-52
2023/10/07 02:19:40;;;;;;;20.30;6.03;;;16.60;99.90;;;;;;5044374;28;20052;-60
2023/10/07 02:22:20;;;;;;;17.88;6.07;;;16.50;99.90;;;;;;5026656;28;20053;-62
2023/10/07 02:24:52;;;;;;;19.85;5.68;;;16.70;99.90;;;;;;5044329;28;20132;-58
2023/10/07 02:27:19;;;;;;;19.17;5.70;;;16.70;99.90;;;;;;5026254;28;20048;-59
2023/10/07 02:29:50;;;;;;;20.92;6.07;;;16.70;99.90;;;;;;5043632;28;20123;-54
2023/10/07 02:32:17;;;;;;;16.73;4.82;;;16.70;99.90;;;;;;5025526;28;20099;-58
2023/10/07 02:34:55;;;;;;;19.40;5.78;;;16.70;99.90;;;;;;5043417;28;20527;-61
2023/10/07 02:37:22;;;;;;;18.92;5.63;;;16.70;99.90;;;;;;5043082;28;20037;-56
2023/10/07 02:39:49;;;;;;;17.05;5.97;;;16.80;99.90;;;;;;5043732;28;20053;-56
2023/10/07 02:42:21;;;;;;;17.83;4.95;;;16.70;99.90;;;;;;5043662;28;20493;-59
2023/10/07 02:47:36;;;;;;;15.02;4.75;;;16.80;99.90;;;;;;5044616;28;20045;-59
2023/10/07 02:50:05;;;;;;;14.95;4.90;;;16.80;99.90;;;;;;5043768;28;20060;-49
2023/10/07 02:52:36;;;;;;;20.15;5.45;;;16.80;99.90;;;;;;5044430;28;20088;-58
2023/10/07 02:57:41;;;;;;;14.50;4.82;;;16.80;99.90;;;;;;5044233;28;20048;-60
2023/10/07 03:00:35;;;;;;;18.08;4.65;;;16.80;99.90;;;;;;5044410;28;20175;-51
2023/10/07 03:03:19;;;;;;;20.48;4.78;;;16.80;99.90;;;;;;5042648;28;20049;-59
2023/10/07 03:05:45;;;;;;;16.65;4.88;;;16.80;99.90;;;;;;5043683;28;20098;-61
2023/10/07 03:08:20;;;;;;;18.05;4.85;;;16.90;99.90;;;;;;5024415;28;20131;-60
2023/10/07 03:10:54;;;;;;;;;;;16.80;99.90;;;;;;5044187;28;20053;-61
2023/10/07 03:13:24;;;;;;;18.27;5.40;;;16.90;99.90;;;;;;5043604;28;19920;-58
2023/10/07 03:16:09;;;;;;;19.00;5.28;;;16.90;99.90;;;;;;5042097;28;20060;-51
2023/10/07 03:18:38;;;;;;;18.42;5.13;;;16.90;99.90;;;;;;5044059;28;20080;-60
2023/10/07 03:21:10;;;;;;;18.52;5.20;;;16.90;99.90;;;;;;5041993;28;20049;-60
2023/10/07 03:23:48;;;;;;;14.00;5.22;;;17.00;99.90;;;;;;5043449;28;20052;-54
2023/10/07 03:26:18;;;;;;;18.55;4.85;;;17.00;99.90;;;;;;5043235;28;20088;-51
2023/10/07 03:28:56;;;;;;;16.27;4.82;;;17.00;99.90;;;;;;5043766;28;20060;-51
2023/10/07 03:31:34;;;;;;;13.90;4.82;;;17.10;99.90;;;;;;5042869;28;20045;-55
2023/10/07 03:34:00;;;;;;;13.27;4.53;;;17.10;99.90;;;;;;5042264;28;20124;-61
2023/10/07 03:36:44;;;;;;;14.15;4.97;;;17.10;99.90;;;;;;5025045;28;20460;-58
2023/10/07 03:41:52;;;;;;;16.15;4.55;;;17.10;99.90;;;;;;5042080;28;20124;-53
2023/10/07 03:44:20;;;;;;;14.43;4.35;;;17.10;99.90;;;;;;5042060;28;20036;-54
2023/10/07 03:46:48;;;;;;;18.17;4.43;;;17.10;99.90;;;;;;5041352;28;20041;-56
2023/10/07 03:49:15;;;;;;;15.65;4.57;;;17.20;99.90;;;;;;5043043;28;20080;-58
2023/10/07 03:51:48;;;;;;;12.40;4.28;;;17.20;99.90;;;;;;5043747;28;20086;-60
2023/10/07 03:54:24;;;;;;;10.70;4.38;;;17.20;99.90;;;;;;5041836;28;20044;-58
2023/10/07 03:56:50;;;;;;;17.83;5.07;;;17.20;99.90;;;;;;5041399;28;20529;-56
2023/10/07 03:59:15;;;;;;;16.45;4.75;;;17.10;99.90;;;;;;5041875;28;20119;-61
2023/10/07 04:01:44;;;;;;;14.35;4.65;;;17.10;99.90;;;;;;5041185;28;20057;-58
2023/10/07 04:04:11;;;;;;;14.57;4.20;;;17.30;99.90;;;;;;5042304;28;20071;-58
2023/10/07 04:06:40;;;;;;;15.40;4.38;;;17.30;99.90;;;;;;5043012;28;20898;-57
2023/10/07 04:09:06;;;;;;;16.52;4.65;;;17.20;99.90;;;;;;5041132;28;20087;-55
2023/10/07 04:11:34;;;;;;;16.55;4.60;;;17.20;99.90;;;;;;5042665;28;20131;-54
2023/10/07 04:14:07;;;;;;;17.98;4.70;;;17.10;99.90;;;;;;5042718;28;20412;-55
2023/10/07 04:16:33;;;;;;;14.20;4.80;;;17.20;99.90;;;;;;5041101;28;20053;-59
2023/10/07 04:19:30;;;;;;;15.25;4.10;;;17.30;99.90;;;;;;5042147;28;20064;-56
2023/10/07 04:21:58;;;;;;;16.63;4.22;;;17.20;99.90;;;;;;5040632;28;20120;-60
2023/10/07 04:24:24;;;;;;;17.42;5.00;;;17.40;99.90;;;;;;5024501;28;20099;-50
2023/10/07 04:27:18;;;;;;;15.30;4.53;;;17.10;99.90;;;;;;5042178;28;20033;-57
2023/10/07 04:29:37;;;;;;;14.02;4.10;;;17.30;99.90;;;;;;5041951;28;20061;-57
2023/10/07 04:32:11;;;;;;;15.20;4.47;;;17.20;99.90;;;;;;5023089;28;20080;-61
2023/10/07 04:34:48;;;;;;;18.53;4.63;;;17.20;99.90;;;;;;5042080;28;20123;-59
2023/10/07 04:37:16;;;;;;;15.38;4.45;;;17.30;99.90;;;;;;5042613;28;20037;-54
2023/10/07 04:42:22;;;;;;;14.25;4.15;;;17.20;99.90;;;;;;5041475;28;20045;-52
2023/10/07 04:52:26;;;;;;;14.10;4.72;;;17.20;99.90;;;;;;5040834;28;20545;-53
2023/10/07 04:54:53;;;;;;;15.98;4.50;;;17.20;99.90;;;;;;5041067;28;20675;-53
2023/10/07 04:57:39;;;;;;;18.88;4.53;;;17.20;99.90;;;;;;5041437;28;20056;-54
2023/10/07 05:00:08;;;;;;;20.75;4.45;;;17.20;99.90;;;;;;5041473;28;20837;-61
2023/10/07 05:02:34;;;;;;;16.38;4.75;;;17.20;99.90;;;;;;5041459;28;20117;-62
2023/10/07 05:05:09;;;;;;;13.18;4.13;;;17.20;99.90;;;;;;5041901;28;20056;-59
2023/10/07 05:07:38;;;;;;;12.20;4.35;;;17.20;99.90;;;;;;5041753;28;20430;-61
2023/10/07 05:10:08;;;;;;;15.02;4.45;;;17.20;99.90;;;;;;5045470;28;20076;-57
2023/10/07 05:12:34;;;;;;;19.38;4.78;;;17.10;99.90;;;;;;5045283;28;20127;-56
2023/10/07 05:15:05;;;;;;;14.30;4.95;;;17.10;99.90;;;;;;5045178;28;20128;-58
2023/10/07 05:17:36;;;;;;;14.48;4.68;;;17.10;99.90;;;;;;5044826;28;20114;-54
2023/10/07 05:20:26;;;;;;;16.90;4.57;;;17.10;99.90;;;;;;5045614;28;20045;-58
2023/10/07 05:22:52;;;;;;;14.30;4.03;;;17.10;99.90;;;;;;5045471;28;20055;-51
2023/10/07 05:25:17;;;;;;;11.73;4.22;;;17.10;99.90;;;;;;5045412;28;20094;-57
2023/10/07 05:27:44;;;;;;;13.30;4.68;;;17.10;99.90;;;;;;5044912;28;20143;-52
2023/10/07 05:30:12;;;;;;;15.05;4.35;;;17.20;99.90;;;;;;5045038;28;20056;-50
2023/10/07 05:32:39;;;;;;;18.42;4.90;;;17.20;99.90;;;;;;5045793;28;20665;-59
2023/10/07 05:35:05;;;;;;;17.88;4.28;;;17.30;99.90;;;;;;5026735;28;20057;-58
2023/10/07 05:37:32;;;;;;;16.23;5.07;;;17.40;99.90;;;;;;5044451;28;20407;-57
2023/10/07 05:39:59;;;;;;;14.98;4.40;;;17.30;99.90;;;;;;5045120;28;20068;-60
2023/10/07 05:42:25;;;;;;;14.23;4.68;;;17.30;99.90;;;;;;5027578;28;20088;-60
2023/10/07 05:44:52;;;;;;;12.35;4.72;;;17.30;99.90;;;;;;5044243;28;20048;-60
2023/10/07 05:47:18;;;;;;;13.65;4.70;;;17.20;99.90;;;;;;5043768;28;20045;-55
2023/10/07 05:49:44;;;;;;;14.80;4.80;;;17.30;99.90;;;;;;5044430;28;20064;-55
2023/10/07 05:52:10;;;;;;;14.20;4.35;;;17.30;99.90;;;;;;5045553;28;20495;-50
2023/10/07 05:54:35;;;;;;;17.38;4.78;;;17.30;99.90;;;;;;5044480;28;20045;-54
2023/10/07 05:57:04;;;;;;;15.13;4.80;;;17.20;99.90;;;;;;5044364;28;20040;-55
2023/10/07 05:59:33;;;;;;;16.20;5.15;;;17.20;99.90;;;;;;5020908;28;20621;-57
2023/10/07 06:02:05;;;;;;;15.32;4.45;;;17.30;99.90;;;;;;5041089;28;20049;-62
2023/10/07 06:04:31;;;;;;;17.23;4.57;;;17.10;99.90;;;;;;5044183;28;20045;-56
2023/10/07 06:06:57;;;;;;;14.10;4.32;;;17.20;99.90;;;;;;5045416;28;20182;-58
2023/10/07 06:09:23;;;;;;;15.88;4.28;;;17.30;99.90;;;;;;5025757;28;20136;-55
2023/10/07 06:11:49;;;;;;;12.75;4.20;;;17.20;99.90;;;;;;5045125;28;20045;-55
2023/10/07 06:14:18;;;;;;;16.67;4.50;;;17.30;99.90;;;;;;5044133;28;20365;-55
2023/10/07 06:16:44;;;;;;;15.77;4.53;;;17.20;99.90;;;;;;5044391;28;20083;-57
2023/10/07 06:19:13;;;;;;;15.93;5.15;;;17.20;99.90;;;;;;5043656;28;20508;-55
2023/10/07 06:21:47;;;;;;;14.05;5.18;;;17.20;99.90;;;;;;5045503;28;20045;-60
2023/10/07 06:24:20;;;;;;;;;;;17.20;99.90;;;;;;5045431;28;20040;-57
2023/10/07 06:26:48;;;;;;;18.02;4.43;;;17.10;99.90;;;;;;5044941;28;19929;-55
2023/10/07 06:29:18;;;;;;;14.93;5.22;;;17.20;99.90;;;;;;5045071;28;20037;-58
2023/10/07 06:32:13;;;;;;;16.92;5.05;;;17.10;99.90;;;;;;5043151;28;20110;-52
2023/10/07 06:34:41;;;;;;;17.07;4.80;;;17.00;99.90;;;;;;5044629;28;20128;-56
2023/10/07 06:37:07;;;;;;;16.63;4.93;;;17.00;99.90;;;;;;5043427;28;20353;-54
2023/10/07 06:39:33;;;;;;;15.93;4.60;;;17.00;99.90;;;;;;5043048;28;20549;-56
2023/10/07 06:41:59;;;;;;;16.38;4.88;;;16.90;99.90;;;;;;5043756;28;20033;-56
2023/10/07 06:44:27;;;;;;;16.38;5.10;;;16.90;99.90;;;;;;5042199;28;20103;-57
2023/10/07 06:46:56;;;;;;;18.80;5.28;;;16.90;99.90;;;;;;5043495;28;20131;-57
2023/10/07 06:49:22;;;;;;;12.50;4.78;;;16.90;99.90;;;;;;5025957;28;20060;-59
2023/10/07 06:51:56;;;;;;;17.90;4.93;;;16.90;99.90;;;;;;5043957;28;20446;-61
2023/10/07 06:54:23;;;;;;;15.05;5.40;;;16.90;99.90;;;;;;5042423;28;20106;-55
2023/10/07 06:56:54;;;;;;;14.93;4.55;;;17.00;99.90;;;;;;5042495;28;20098;-57
2023/10/07 06:59:27;;;;;;;14.52;4.38;;;17.00;99.90;;;;;;5042960;28;20794;-59
2023/10/07 07:01:54;;;;;;;13.73;4.40;;;16.90;99.90;;;;;;5024391;28;20106;-64
2023/10/07 07:04:22;;;;;;;14.50;4.38;;;17.00;99.90;;;;;;5042779;28;20045;-60
2023/10/07 07:06:58;;;;;;;14.57;4.40;;;16.90;99.90;;;;;;5042791;28;20087;-60
2023/10/07 07:12:11;;;;;;;16.30;4.45;;;17.00;99.90;;;;;;5043715;28;20056;-59
2023/10/07 07:14:46;;;;;;;14.65;4.15;;;17.00;99.90;;;;;;5042723;28;20049;-60
2023/10/07 07:17:35;;;;;;;14.13;4.35;;;17.00;99.90;;;;;;5040538;28;20045;-57
2023/10/07 07:22:46;;;;;;;16.45;4.88;;;17.10;99.90;;;;;;5042294;28;20149;-59
2023/10/07 07:27:52;;;;;;;16.83;4.93;;;17.10;99.90;;;;;;5040306;28;20144;-61
2023/10/07 07:30:22;;;;;;;14.80;4.75;;;17.10;99.90;;;;;;5038242;28;20063;-60
2023/10/07 07:32:55;;;;;;;11.35;4.30;;;17.10;99.90;;;;;;5039749;28;20045;-60
2023/10/07 07:35:40;;;;;;;14.50;4.50;;;17.10;99.90;;;;;;5024521;28;20135;-59
2023/10/07 07:41:04;;;;;;;16.23;4.57;;;17.20;99.90;;;;;;5039737;28;20048;-61
2023/10/07 07:43:30;;;;;;;17.38;4.47;;;17.20;99.90;;;;;;5023847;28;20071;-60
2023/10/07 07:46:11;;;;;;;16.85;4.88;;;17.20;99.90;;;;;;5041980;28;20049;-62
2023/10/07 07:48:37;;;;;;;20.65;4.82;;;17.20;99.90;;;;;;5042119;28;20131;-61
2023/10/07 07:51:03;;;;;;;14.82;4.68;;;17.10;99.90;;;;;;5042144;28;20080;-61
2023/10/07 07:53:31;;;;;;;16.67;4.75;;;17.20;99.90;;;;;;5042543;28;20072;-62
2023/10/07 07:55:58;;;;;;;12.95;4.70;;;17.20;99.90;;;;;;5023519;28;20564;-61
2023/10/07 07:58:24;;;;;;;15.35;4.57;;;17.20;99.90;;;;;;5043109;28;20080;-54
2023/10/07 08:00:58;;;;;;;18.80;4.72;;;17.20;99.90;;;;;;5041710;28;20041;-57
2023/10/07 08:14:09;;;;;;;10.60;4.32;;;17.90;99.90;;;;;;5071671;27;20458;-64
2023/10/07 08:16:46;;;;;;;15.75;4.25;;;17.80;99.90;;;;;;5069189;28;20465;-55
2023/10/07 08:19:13;;;;;;;14.32;4.55;;;17.70;99.90;;;;;;5069614;28;20055;-51
2023/10/07 08:21:39;;;;;;;12.23;4.00;;;17.70;99.90;;;;;;5068609;28;20587;-57
2023/10/07 08:24:06;;;;;;;13.02;3.95;;;17.70;99.90;;;;;;5068679;28;20032;-53
2023/10/07 08:26:34;;;;;;;13.32;3.65;;;17.70;99.90;;;;;;5056016;28;20044;-51
2023/10/07 08:29:00;;;;;;;11.32;4.03;;;17.80;99.90;;;;;;5058156;28;20049;-52
2023/10/07 08:31:43;;;;;;;11.68;3.53;;;17.80;99.90;;;;;;5060155;28;20412;-52
2023/10/07 08:36:43;;;;;;;14.32;4.00;;;17.80;99.90;;;;;;5060525;28;20071;-50
2023/10/07 08:39:09;;;;;;;;;;;17.90;99.90;;;;;;5060469;28;20049;-52
2023/10/07 08:41:37;;;;;;;13.98;4.05;;;17.80;99.90;;;;;;5058336;28;19928;-54
2023/10/07 08:44:15;;;;;;;13.30;4.13;;;17.90;99.90;;;;;;5058993;28;20045;-48
2023/10/07 08:46:54;;;;;;;9.73;3.92;;;17.90;99.90;;;;;;5059550;28;20523;-53
2023/10/07 08:49:27;;;;;;;11.38;3.72;;;18.00;99.90;;;;;;5059257;28;20106;-55
2023/10/07 08:51:56;;;;;;;12.10;4.05;;;18.00;99.90;;;;;;5060109;28;20159;-58
2023/10/07 08:54:26;;;;;;;19.10;3.88;;;18.10;99.90;;;;;;5059325;28;20036;-57
2023/10/07 08:57:06;;;;;;;12.50;4.47;;;18.10;99.90;;;;;;5091631;28;20072;-57
2023/10/07 08:59:31;;;;;;;14.93;4.50;;;18.10;99.90;;;;;;5058309;28;20059;-57
2023/10/07 09:01:57;;;;;;;15.10;4.40;;;18.00;99.90;;;;;;5066115;28;20045;-50
2023/10/07 09:04:33;;;;;;;14.30;3.67;;;17.90;99.90;;;;;;5058123;28;20439;-48
2023/10/07 09:07:08;;;;;;;11.80;4.25;;;17.90;99.90;;;;;;5049636;28;20055;-49
2023/10/07 09:09:38;;;;;;;13.88;3.80;;;18.00;99.90;;;;;;5059690;28;20036;-47
2023/10/07 09:12:49;;;;;;;10.82;4.13;;;18.10;99.90;;;;;;5090963;28;20059;-50
2023/10/07 09:14:58;;;;;;;13.00;3.97;;;18.10;99.90;;;;;;5042324;28;20435;-47
2023/10/07 09:17:26;;;;;;;13.18;4.03;;;18.10;99.90;;;;;;5045905;28;20041;-44
2023/10/07 09:19:58;;;;;;;11.45;3.95;;;18.20;99.90;;;;;;5043998;28;20123;-47
2023/10/07 09:22:27;;;;;;;16.27;4.05;;;18.30;99.90;;;;;;5045286;28;20480;-45
2023/10/07 09:24:54;;;;;;;21.00;4.13;;;18.40;99.90;;;;;;5044738;28;20044;-47
2023/10/07 09:27:36;;;;;;;10.13;4.00;;;18.50;99.90;;;;;;5046077;28;20056;-45
2023/10/07 09:33:12;;;;;;;10.85;3.78;;;18.60;99.90;;;;;;5040062;28;20710;-46
2023/10/07 09:35:42;;;;;;;14.88;4.55;;;18.60;99.90;;;;;;5045565;28;20049;-44
2023/10/07 09:38:12;;;;;;;13.23;4.68;;;18.80;99.90;;;;;;5045227;28;20122;-45
2023/10/07 09:43:27;;;;;;;12.60;4.45;;;18.60;99.90;;;;;;5044754;28;20053;-49
2023/10/07 09:45:53;;;;;;;16.50;4.18;;;18.50;99.90;;;;;;5076803;28;20048;-48
2023/10/07 09:48:30;;;;;;;11.13;3.50;;;18.40;99.90;;;;;;5052325;28;20425;-47
2023/10/07 09:50:58;;;;;;;14.27;4.15;;;18.40;99.90;;;;;;5045226;28;20645;-54
2023/10/07 09:53:35;;;;;;;17.83;4.90;;;18.40;99.90;;;;;;5044978;28;20116;-47
2023/10/07 09:56:29;;;;;;;16.90;4.78;;;18.30;99.90;;;;;;5044025;28;20045;-50
2023/10/07 09:59:17;;;;;;;15.07;4.60;;;18.20;99.90;;;;;;5044008;28;20427;-46
2023/10/07 10:02:05;;;;;;;12.80;4.38;;;18.30;99.90;;;;;;5045157;28;20060;-45
2023/10/07 10:04:48;;;;;;;14.80;5.20;;;18.20;99.90;;;;;;5043936;28;20166;-44
2023/10/07 10:07:56;;;;;;;13.18;4.65;;;18.10;99.90;;;;;;5043592;28;20041;-44
2023/10/07 10:10:31;;;;;;;17.63;4.55;;;18.10;99.90;;;;;;5034405;28;20060;-49
2023/10/07 10:21:12;;;;;;;16.40;5.88;;;18.10;99.90;;;;;;4991497;28;20045;-46
2023/10/07 10:23:42;;;;;;;14.13;5.05;;;18.10;99.90;;;;;;4992223;28;20179;-48
2023/10/07 10:26:27;;;;;;;11.75;4.32;;;18.10;99.90;;;;;;5018184;28;20469;-46
2023/10/07 10:28:59;;;;;;;13.75;4.82;;;18.10;99.90;;;;;;5044475;28;20396;-45
2023/10/07 10:31:32;;;;;;;11.68;3.95;;;18.10;99.90;;;;;;5044399;28;20073;-47
2023/10/07 10:33:59;;;;;;;12.70;4.82;;;18.10;99.90;;;;;;5074821;28;20048;-49
2023/10/07 10:36:24;;;;;;;15.10;4.68;;;18.20;99.90;;;;;;5044958;28;20045;-50
2023/10/07 10:38:50;;;;;;;13.80;5.00;;;18.20;99.90;;;;;;5044769;28;20370;-47
2023/10/07 10:41:36;;;;;;;12.70;4.68;;;18.30;99.90;;;;;;5044356;28;20043;-50
2023/10/07 10:44:12;;;;;;;12.57;4.82;;;18.30;99.90;;;;;;5043896;28;20053;-48
2023/10/07 10:46:50;;;;;;;16.65;4.68;;;18.40;99.90;;;;;;5043657;28;20044;-48
2023/10/07 10:49:20;;;;;;;12.10;4.63;;;18.50;99.90;;;;;;5033950;28;20052;-46
2023/10/07 10:51:50;;;;;;;14.43;5.43;;;18.70;99.90;;;;;;5044081;28;20044;-47
2023/10/07 10:54:17;;;;;;;15.98;4.47;;;18.90;99.90;;;;;;5041697;28;20041;-48
2023/10/07 10:56:49;;;;;;;13.90;4.45;;;19.10;99.90;;;;;;5043056;28;20142;-46
2023/10/07 10:59:18;;;;;;;12.50;4.57;;;19.20;99.90;;;;;;5042624;28;20415;-45
2023/10/07 11:01:49;;;;;;;11.80;4.57;;;19.20;99.90;;;;;;5058523;28;20059;-47
2023/10/07 11:04:19;;;;;;;12.23;4.70;;;19.10;99.90;;;;;;5043175;28;20445;-56
2023/10/07 11:06:50;;;;;;;13.18;4.70;;;19.10;99.90;;;;;;5040715;28;20036;-57
2023/10/07 11:09:18;;;;;;;13.85;4.60;;;19.00;99.90;;;;;;5041912;28;20033;-57
2023/10/07 11:11:48;;;;;;;12.30;4.07;;;19.00;99.90;;;;;;5042491;28;20036;-56
2023/10/07 11:14:20;;;;;;;10.65;4.30;;;18.90;99.90;;;;;;5043329;28;20509;-57
2023/10/07 11:16:46;;;;;;;15.93;4.60;;;18.90;99.90;;;;;;5043724;28;20052;-55
2023/10/07 11:19:14;;;;;;;12.38;4.60;;;18.90;99.90;;;;;;5043030;28;20052;-56
2023/10/07 11:21:44;;;;;;;12.90;4.50;;;18.90;99.90;;;;;;5042258;28;20049;-57
2023/10/07 11:24:22;;;;;;;15.80;4.60;;;18.80;99.90;;;;;;5043617;28;20049;-56
2023/10/07 11:26:49;;;;;;;15.73;4.50;;;18.80;99.90;;;;;;5043842;28;20065;-57
2023/10/07 11:29:15;;;;;;;12.32;4.80;;;18.80;99.90;;;;;;5041714;28;20051;-56
2023/10/07 11:31:41;;;;;;;11.07;4.53;;;18.70;99.90;;;;;;5049281;28;20044;-52
2023/10/07 11:34:10;;;;;;;15.05;4.65;;;18.70;99.90;;;;;;5042185;28;20048;-56
2023/10/07 11:37:09;;;;;;;12.60;4.25;;;18.60;99.90;;;;;;5040592;28;20128;-55
2023/10/07 11:39:38;;;;;;;11.57;4.07;;;18.60;99.90;;;;;;5043340;28;20040;-55
2023/10/07 11:42:05;;;;;;;17.05;5.10;;;18.50;99.90;;;;;;5041612;28;20048;-54
2023/10/07 11:44:31;;;;;;;13.80;4.22;;;18.50;99.90;;;;;;5042838;28;20167;-55
2023/10/07 11:46:57;;;;;;;15.95;4.93;;;18.50;99.90;;;;;;5043514;28;20108;-54
2023/10/07 11:49:23;;;;;;;13.30;5.10;;;18.40;99.90;;;;;;5042653;28;20092;-56
2023/10/07 11:51:51;;;;;;;11.68;4.93;;;18.40;99.90;;;;;;5044316;28;20049;-56
2023/10/07 11:54:17;;;;;;;16.38;5.43;;;18.40;99.90;;;;;;5042292;28;20044;-57
2023/10/07 11:56:43;;;;;;;16.40;5.00;;;18.30;99.90;;;;;;5042752;28;20080;-56
2023/10/07 11:59:09;;;;;;;17.38;5.47;;;18.40;99.90;;;;;;5041074;28;20041;-56
2023/10/07 12:01:34;;;;;;;11.80;4.30;;;18.40;99.90;;;;;;5039868;28;20049;-55
2023/10/07 12:04:00;;;;;;;14.88;4.85;;;18.40;99.90;;;;;;5040717;28;20117;-56
2023/10/07 12:06:25;;;;;;;16.60;5.18;;;18.50;99.90;;;;;;5042582;28;20041;-53
2023/10/07 12:08:52;;;;;;;13.27;4.70;;;18.50;99.90;;;;;;5042529;28;20388;-56
2023/10/07 12:11:18;;;;;;;13.15;5.10;;;18.50;99.90;;;;;;5043503;28;20484;-57
2023/10/07 12:13:46;;;;;;;14.73;5.45;;;18.60;99.90;;;;;;5041309;28;20068;-56
2023/10/07 12:16:12;;;;;;;12.82;4.43;;;18.60;99.90;;;;;;5041225;28;20056;-56
2023/10/07 12:18:38;;;;;;;18.10;5.22;;;18.60;99.90;;;;;;5041366;28;20032;-56
2023/10/07 12:21:12;;;;;;;13.65;4.50;;;18.60;99.90;;;;;;5042671;28;20041;-56
2023/10/07 12:23:39;;;;;;;13.77;5.20;;;18.50;99.90;;;;;;5041801;28;20048;-55
2023/10/07 12:26:13;;;;;;;14.70;5.43;;;18.50;99.90;;;;;;5042001;28;20033;-56
2023/10/07 12:28:39;;;;;;;12.90;4.63;;;18.50;99.90;;;;;;5039381;28;20056;-56
2023/10/07 12:31:10;;;;;;;15.20;5.03;;;18.50;99.90;;;;;;5040231;28;20048;-55
2023/10/07 12:33:36;;;;;;;12.80;4.35;;;18.50;99.90;;;;;;5041161;28;20037;-56
2023/10/07 12:36:01;;;;;;;12.15;4.55;;;18.50;99.90;;;;;;5049651;28;20049;-57
2023/10/07 12:38:27;;;;;;;11.30;4.18;;;18.50;99.90;;;;;;5040915;28;20037;-56
2023/10/07 12:40:52;;;;;;;15.65;4.63;;;18.50;99.90;;;;;;5040806;28;20676;-57
2023/10/07 12:43:18;;;;;;;12.45;4.32;;;18.50;99.90;;;;;;5041930;28;20128;-55
2023/10/07 12:45:45;;;;;;;9.10;4.20;;;18.50;99.90;;;;;;5041733;28;20513;-56
2023/10/07 12:48:12;;;;;;;16.50;4.55;;;18.60;99.90;;;;;;5041852;28;20037;-57
2023/10/07 12:50:44;;;;;;;15.98;5.30;;;18.70;99.90;;;;;;5045437;28;20152;-57
2023/10/07 12:53:10;;;;;;;14.27;5.07;;;18.60;99.90;;;;;;5045628;28;20028;-56
2023/10/07 12:55:37;;;;;;;13.95;5.10;;;18.80;99.90;;;;;;5045788;28;20059;-56
2023/10/07 12:58:18;;;;;;;15.90;5.15;;;18.70;99.90;;;;;;5046361;28;20044;-53
2023/10/07 13:00:44;;;;;;;13.20;4.68;;;18.70;99.90;;;;;;5045868;28;20094;-55
2023/10/07 13:03:10;;;;;;;15.73;4.95;;;18.80;99.90;;;;;;5045165;28;20041;-55
2023/10/07 13:05:42;;;;;;;19.50;4.80;;;18.70;99.90;;;;;;5045102;28;20045;-51
2023/10/07 13:08:17;;;;;;;17.58;4.75;;;18.70;99.90;;;;;;5045244;28;20094;-56
2023/10/07 13:10:43;;;;;;;13.80;4.60;;;18.70;99.90;;;;;;5045654;28;20071;-56
2023/10/07 13:13:13;;;;;;;17.67;5.45;;;18.70;99.90;;;;;;5044773;28;20053;-56
2023/10/07 13:15:41;;;;;;;14.70;4.85;;;18.70;99.90;;;;;;5044765;28;20071;-56
2023/10/07 13:18:09;;;;;;;14.88;5.20;;;18.60;99.90;;;;;;5044230;28;20072;-56
2023/10/07 13:20:35;;;;;;;14.60;5.07;;;18.60;99.90;;;;;;5045235;28;20045;-55
2023/10/07 13:23:03;;;;;;;17.50;5.57;;;18.60;99.90;;;;;;5045318;28;20045;-56
2023/10/07 13:25:31;;;;;;;13.93;4.30;;;18.50;99.90;;;;;;5045297;28;20045;-56
2023/10/07 13:28:00;;;;;;;9.55;4.40;;;18.50;99.90;;;;;;5045597;28;20045;-57
2023/10/07 13:30:25;;;;;;;14.00;4.80;;;18.40;99.90;;;;;;5044236;28;20453;-57
2023/10/07 13:32:54;;;;;;;17.23;5.22;;;18.40;99.90;;;;;;5044830;28;20037;-56
2023/10/07 13:35:21;;;;;;;14.43;4.85;;;18.30;99.90;;;;;;5045626;28;20119;-56
2023/10/07 13:37:52;;;;;;;13.52;4.63;;;18.30;99.90;;;;;;5045177;28;20086;-54
2023/10/07 13:40:19;;;;;;;14.52;5.25;;;18.30;99.90;;;;;;5046122;28;20041;-56
2023/10/07 13:42:49;;;;;;;15.80;5.35;;;18.20;99.90;;;;;;5043748;28;20558;-56
2023/10/07 13:45:21;;;;;;;13.25;4.72;;;18.20;99.90;;;;;;5044187;28;20043;-57
2023/10/07 13:47:48;;;;;;;14.23;4.78;;;18.20;99.90;;;;;;5044567;28;20037;-57
2023/10/07 13:50:15;;;;;;;19.45;5.40;;;18.10;99.90;;;;;;5044575;28;20041;-56
2023/10/07 13:52:51;;;;;;;12.05;4.60;;;18.10;99.90;;;;;;5044555;28;20057;-54
2023/10/07 13:55:33;;;;;;;18.52;5.55;;;18.20;99.90;;;;;;5045231;28;20047;-54
2023/10/07 13:58:00;;;;;;;15.68;4.97;;;18.10;99.90;;;;;;5043602;28;20044;-56